createdAt,value
2018-07-13T00:00:18.802Z,0
2018-07-13T00:01:20.795Z,0
2018-07-13T00:02:23.085Z,0
2018-07-13T00:03:25.088Z,0
2018-07-13T00:04:27.093Z,0
2018-07-13T00:05:29.091Z,0
2018-07-13T00:06:31.388Z,0
2018-07-13T00:07:33.397Z,0
2018-07-13T00:08:35.464Z,0
2018-07-13T00:09:37.465Z,0
2018-07-13T00:10:39.881Z,0
2018-07-13T00:11:41.877Z,0
2018-07-13T00:12:44.241Z,0
2018-07-13T00:13:46.224Z,0
2018-07-13T00:14:48.255Z,0
2018-07-13T00:15:50.263Z,0
2018-07-13T00:16:52.322Z,0
2018-07-13T00:17:54.325Z,0
2018-07-13T00:18:56.381Z,0
2018-07-13T00:19:58.663Z,0
2018-07-13T00:21:00.712Z,0
2018-07-13T00:22:02.706Z,0
2018-07-13T00:23:04.765Z,0
2018-07-13T00:24:06.763Z,0
2018-07-13T00:25:08.786Z,0
2018-07-13T00:26:11.108Z,0
2018-07-13T00:27:13.132Z,0
2018-07-13T00:28:15.420Z,0
2018-07-13T00:29:17.622Z,0
2018-07-13T00:30:19.621Z,0
2018-07-13T00:31:21.615Z,0
2018-07-13T00:32:23.905Z,0
2018-07-13T00:33:26.189Z,0
2018-07-13T00:34:28.172Z,0
2018-07-13T00:35:30.174Z,0
2018-07-13T00:36:32.163Z,0
2018-07-13T00:37:34.168Z,0
2018-07-13T00:38:36.167Z,0
2018-07-13T00:39:38.167Z,0
2018-07-13T00:40:40.176Z,0
2018-07-13T00:41:42.155Z,0
2018-07-13T00:42:44.438Z,0
2018-07-13T00:43:46.477Z,0
2018-07-13T00:44:48.468Z,0
2018-07-13T00:45:50.462Z,0
2018-07-13T00:46:52.473Z,0
2018-07-13T00:47:54.461Z,0
2018-07-13T00:48:56.453Z,0
2018-07-13T00:49:58.456Z,0
2018-07-13T00:51:00.456Z,0
2018-07-13T00:52:02.454Z,0
2018-07-13T00:53:04.841Z,0
2018-07-13T00:54:06.823Z,0
2018-07-13T00:55:09.184Z,0
2018-07-13T00:56:11.560Z,0
2018-07-13T00:57:13.570Z,0
2018-07-13T00:58:15.958Z,0
2018-07-13T00:59:18.239Z,0
2018-07-13T01:00:20.230Z,0
2018-07-13T01:01:22.222Z,0
2018-07-13T01:02:24.224Z,0
2018-07-13T01:03:26.232Z,0
2018-07-13T01:04:28.226Z,0
2018-07-13T01:05:30.216Z,0
2018-07-13T01:06:32.206Z,0
2018-07-13T01:07:34.213Z,0
2018-07-13T01:08:36.211Z,0
2018-07-13T01:09:38.214Z,0
2018-07-13T01:10:40.214Z,0
2018-07-13T01:11:42.207Z,0
2018-07-13T01:12:44.208Z,0
2018-07-13T01:13:46.195Z,0
2018-07-13T01:14:48.209Z,0
2018-07-13T01:15:50.205Z,0
2018-07-13T01:16:52.199Z,0
2018-07-13T01:17:54.200Z,0
2018-07-13T01:18:56.192Z,0
2018-07-13T01:19:58.182Z,0
2018-07-13T01:21:00.187Z,0
2018-07-13T01:22:02.171Z,0
2018-07-13T01:23:04.456Z,0
2018-07-13T01:24:06.449Z,0
2018-07-13T01:25:08.444Z,0
2018-07-13T01:26:10.723Z,0
2018-07-13T01:27:12.733Z,0
2018-07-13T01:28:14.727Z,0
2018-07-13T01:29:17.008Z,0
2018-07-13T01:30:19.002Z,0
2018-07-13T01:31:20.999Z,0
2018-07-13T01:32:23.273Z,0
2018-07-13T01:33:25.275Z,0
2018-07-13T01:34:27.279Z,0
2018-07-13T01:35:29.276Z,0
2018-07-13T01:36:31.646Z,0
2018-07-13T01:37:33.650Z,0
2018-07-13T01:38:35.940Z,0
2018-07-13T01:39:37.950Z,0
2018-07-13T01:40:39.939Z,0
2018-07-13T01:41:41.944Z,0
2018-07-13T01:42:44.319Z,0
2018-07-13T01:43:46.317Z,0
2018-07-13T01:44:48.315Z,0
2018-07-13T01:45:50.306Z,0
2018-07-13T01:46:52.691Z,0
2018-07-13T01:47:54.695Z,0
2018-07-13T01:48:57.069Z,0
2018-07-13T01:49:59.453Z,0
2018-07-13T01:51:01.830Z,0
2018-07-13T01:52:03.825Z,0
2018-07-13T01:53:05.822Z,0
2018-07-13T01:54:07.812Z,0
2018-07-13T01:55:10.537Z,0
2018-07-13T01:56:12.869Z,0
2018-07-13T01:57:14.862Z,0
2018-07-13T01:58:16.867Z,0
2018-07-13T01:59:18.866Z,0
2018-07-13T02:00:21.143Z,0
2018-07-13T02:01:23.127Z,0
2018-07-13T02:02:25.141Z,0
2018-07-13T02:03:27.135Z,0
2018-07-13T02:04:29.518Z,0
2018-07-13T02:05:31.520Z,0
2018-07-13T02:06:33.518Z,0
2018-07-13T02:07:35.511Z,0
2018-07-13T02:08:37.508Z,0
2018-07-13T02:09:39.506Z,0
2018-07-13T02:10:41.514Z,0
2018-07-13T02:11:43.506Z,0
2018-07-13T02:12:45.786Z,0
2018-07-13T02:13:47.790Z,0
2018-07-13T02:14:49.775Z,0
2018-07-13T02:15:51.779Z,0
2018-07-13T02:16:53.773Z,4
2018-07-13T02:17:55.774Z,4
2018-07-13T02:18:58.152Z,4
2018-07-13T02:20:00.143Z,4
2018-07-13T02:21:02.145Z,0
2018-07-13T02:22:04.135Z,4
2018-07-13T02:23:06.133Z,4
2018-07-13T02:24:08.135Z,4
2018-07-13T02:25:10.134Z,8
2018-07-13T02:26:12.126Z,4
2018-07-13T02:27:14.128Z,4
2018-07-13T02:28:16.109Z,8
2018-07-13T02:29:18.510Z,8
2018-07-13T02:30:20.798Z,8
2018-07-13T02:31:23.084Z,12
2018-07-13T02:32:25.355Z,12
2018-07-13T02:33:27.356Z,12
2018-07-13T02:34:30.025Z,16
2018-07-13T02:35:32.022Z,16
2018-07-13T02:36:34.393Z,20
2018-07-13T02:37:36.425Z,20
2018-07-13T02:38:39.381Z,24
2018-07-13T02:39:41.399Z,28
2018-07-13T02:40:43.395Z,32
2018-07-13T02:41:45.674Z,36
2018-07-13T02:42:47.675Z,40
2018-07-13T02:43:49.664Z,44
2018-07-13T02:44:52.347Z,48
2018-07-13T02:45:54.628Z,52
2018-07-13T02:46:56.615Z,60
2018-07-13T02:47:58.616Z,60
2018-07-13T02:49:00.619Z,68
2018-07-13T02:50:02.610Z,72
2018-07-13T02:51:04.891Z,84
2018-07-13T02:52:07.189Z,92
2018-07-13T02:53:09.191Z,92
2018-07-13T02:54:11.581Z,96
2018-07-13T02:55:13.572Z,96
2018-07-13T02:56:15.569Z,104
2018-07-13T02:57:17.845Z,120
2018-07-13T02:58:20.144Z,140
2018-07-13T02:59:22.703Z,140
2018-07-13T03:00:24.693Z,140
2018-07-13T03:01:26.707Z,144
2018-07-13T03:02:28.709Z,148
2018-07-13T03:03:31.083Z,156
2018-07-13T03:04:33.087Z,176
2018-07-13T03:05:35.090Z,184
2018-07-13T03:06:37.640Z,200
2018-07-13T03:07:40.027Z,204
2018-07-13T03:08:42.021Z,208
2018-07-13T03:09:44.307Z,224
2018-07-13T03:10:46.293Z,236
2018-07-13T03:11:48.292Z,252
2018-07-13T03:12:50.290Z,272
2018-07-13T03:13:52.676Z,288
2018-07-13T03:14:54.664Z,308
2018-07-13T03:15:56.655Z,324
2018-07-13T03:16:58.658Z,356
2018-07-13T03:18:01.342Z,384
2018-07-13T03:19:03.895Z,392
2018-07-13T03:20:06.564Z,472
2018-07-13T03:21:09.238Z,464
2018-07-13T03:22:11.274Z,444
2018-07-13T03:23:13.703Z,460
2018-07-13T03:24:16.085Z,500
2018-07-13T03:25:18.478Z,508
2018-07-13T03:26:20.848Z,552
2018-07-13T03:27:23.124Z,592
2018-07-13T03:28:25.120Z,584
2018-07-13T03:29:27.122Z,656
2018-07-13T03:30:29.121Z,788
2018-07-13T03:31:31.779Z,796
2018-07-13T03:32:34.451Z,792
2018-07-13T03:33:36.448Z,840
2018-07-13T03:34:38.435Z,860
2018-07-13T03:35:40.424Z,868
2018-07-13T03:36:43.006Z,900
2018-07-13T03:37:44.999Z,1016
2018-07-13T03:38:46.991Z,976
2018-07-13T03:39:48.993Z,1040
2018-07-13T03:40:51.288Z,1036
2018-07-13T03:41:53.574Z,1072
2018-07-13T03:42:55.570Z,1092
2018-07-13T03:43:57.609Z,1120
2018-07-13T03:44:59.961Z,1128
2018-07-13T03:46:02.259Z,1176
2018-07-13T03:47:04.811Z,1208
2018-07-13T03:48:06.807Z,1244
2018-07-13T03:49:08.823Z,1228
2018-07-13T03:50:10.815Z,1340
2018-07-13T03:51:12.802Z,1316
2018-07-13T03:52:14.793Z,1272
2018-07-13T03:53:16.787Z,1220
2018-07-13T03:54:18.787Z,1264
2018-07-13T03:55:20.774Z,1352
2018-07-13T03:56:22.768Z,1452
2018-07-13T03:57:24.760Z,1532
2018-07-13T03:58:26.738Z,1588
2018-07-13T03:59:28.736Z,1572
2018-07-13T04:00:30.734Z,1608
2018-07-13T04:01:32.718Z,1548
2018-07-13T04:02:34.709Z,1684
2018-07-13T04:03:36.691Z,1784
2018-07-13T04:04:38.736Z,1816
2018-07-13T04:05:40.668Z,1844
2018-07-13T04:06:42.938Z,1880
2018-07-13T04:07:44.951Z,2072
2018-07-13T04:08:46.925Z,2204
2018-07-13T04:09:49.194Z,1900
2018-07-13T04:10:51.183Z,1960
2018-07-13T04:11:53.178Z,2188
2018-07-13T04:12:55.552Z,2196
2018-07-13T04:13:57.545Z,2052
2018-07-13T04:14:59.525Z,2048
2018-07-13T04:16:01.507Z,2012
2018-07-13T04:17:04.186Z,2080
2018-07-13T04:18:06.174Z,2276
2018-07-13T04:19:08.169Z,2464
2018-07-13T04:20:10.466Z,2636
2018-07-13T04:21:12.456Z,2700
2018-07-13T04:22:14.447Z,2476
2018-07-13T04:23:16.771Z,2440
2018-07-13T04:24:18.774Z,2696
2018-07-13T04:25:21.053Z,2888
2018-07-13T04:26:23.046Z,2956
2018-07-13T04:27:25.315Z,3240
2018-07-13T04:28:27.306Z,3144
2018-07-13T04:29:29.299Z,3424
2018-07-13T04:30:31.294Z,3716
2018-07-13T04:31:33.280Z,3732
2018-07-13T04:32:35.281Z,3540
2018-07-13T04:33:37.266Z,3440
2018-07-13T04:34:39.257Z,3264
2018-07-13T04:35:41.533Z,3424
2018-07-13T04:36:43.532Z,3696
2018-07-13T04:37:45.555Z,3884
2018-07-13T04:38:47.506Z,3612
2018-07-13T04:39:49.799Z,3732
2018-07-13T04:40:52.204Z,4484
2018-07-13T04:41:54.577Z,4232
2018-07-13T04:42:56.569Z,3624
2018-07-13T04:43:58.559Z,3780
2018-07-13T04:45:00.548Z,3644
2018-07-13T04:46:02.528Z,3908
2018-07-13T04:47:04.523Z,4148
2018-07-13T04:48:06.517Z,3484
2018-07-13T04:49:08.516Z,3720
2018-07-13T04:50:10.859Z,3892
2018-07-13T04:51:13.135Z,4184
2018-07-13T04:52:15.410Z,4252
2018-07-13T04:53:17.394Z,4392
2018-07-13T04:54:19.394Z,4756
2018-07-13T04:55:21.383Z,4696
2018-07-13T04:56:23.766Z,4372
2018-07-13T04:57:25.751Z,4356
2018-07-13T04:58:27.741Z,4512
2018-07-13T04:59:30.019Z,4424
2018-07-13T05:00:32.069Z,4376
2018-07-13T05:01:34.345Z,4720
2018-07-13T05:02:36.343Z,4836
2018-07-13T05:03:38.329Z,4856
2018-07-13T05:04:40.319Z,4840
2018-07-13T05:05:42.312Z,4804
2018-07-13T05:06:44.647Z,4780
2018-07-13T05:07:46.637Z,5252
2018-07-13T05:08:48.629Z,6216
2018-07-13T05:09:50.620Z,6144
2018-07-13T05:10:52.611Z,5424
2018-07-13T05:11:54.600Z,5216
2018-07-13T05:12:56.596Z,5204
2018-07-13T05:13:58.871Z,5428
2018-07-13T05:15:00.872Z,5252
2018-07-13T05:16:02.857Z,5080
2018-07-13T05:17:05.156Z,5088
2018-07-13T05:18:07.152Z,4692
2018-07-13T05:19:09.141Z,5316
2018-07-13T05:20:11.129Z,5116
2018-07-13T05:21:13.139Z,5764
2018-07-13T05:22:15.802Z,5676
2018-07-13T05:23:18.176Z,5848
2018-07-13T05:24:20.177Z,5868
2018-07-13T05:25:22.174Z,5400
2018-07-13T05:26:24.165Z,5212
2018-07-13T05:27:26.153Z,5736
2018-07-13T05:28:28.146Z,5304
2018-07-13T05:29:30.138Z,5228
2018-07-13T05:30:32.122Z,5384
2018-07-13T05:31:34.119Z,5624
2018-07-13T05:32:36.106Z,5872
2018-07-13T05:33:38.101Z,5952
2018-07-13T05:34:40.089Z,5840
2018-07-13T05:35:42.084Z,6124
2018-07-13T05:36:44.076Z,6608
2018-07-13T05:37:46.059Z,7060
2018-07-13T05:38:48.063Z,7424
2018-07-13T05:39:50.058Z,7688
2018-07-13T05:40:52.339Z,5868
2018-07-13T05:41:54.723Z,4740
2018-07-13T05:42:56.717Z,4184
2018-07-13T05:43:58.712Z,4180
2018-07-13T05:45:00.690Z,3920
2018-07-13T05:46:03.070Z,3712
2018-07-13T05:47:05.078Z,3844
2018-07-13T05:48:07.071Z,3880
2018-07-13T05:49:09.058Z,4472
2018-07-13T05:50:11.051Z,4212
2018-07-13T05:51:13.419Z,4108
2018-07-13T05:52:15.417Z,4040
2018-07-13T05:53:17.688Z,4072
2018-07-13T05:54:20.075Z,4228
2018-07-13T05:55:22.072Z,4096
2018-07-13T05:56:24.050Z,4352
2018-07-13T05:57:26.050Z,6108
2018-07-13T05:58:28.040Z,6872
2018-07-13T05:59:30.029Z,5904
2018-07-13T06:00:32.032Z,7944
2018-07-13T06:01:34.308Z,8552
2018-07-13T06:02:36.300Z,9460
2018-07-13T06:03:38.282Z,8696
2018-07-13T06:04:40.269Z,8300
2018-07-13T06:05:42.268Z,6596
2018-07-13T06:06:44.647Z,5640
2018-07-13T06:07:46.944Z,6156
2018-07-13T06:08:49.210Z,7152
2018-07-13T06:09:51.336Z,8036
2018-07-13T06:10:53.661Z,7248
2018-07-13T06:11:55.643Z,7192
2018-07-13T06:12:57.636Z,7004
2018-07-13T06:13:59.629Z,7788
2018-07-13T06:15:02.027Z,9484
2018-07-13T06:16:04.832Z,11728
2018-07-13T06:17:07.195Z,13020
2018-07-13T06:18:09.103Z,12084
2018-07-13T06:19:11.098Z,11604
2018-07-13T06:20:13.080Z,9652
2018-07-13T06:21:15.080Z,9228
2018-07-13T06:22:17.075Z,9344
2018-07-13T06:23:19.340Z,8072
2018-07-13T06:24:21.433Z,8112
2018-07-13T06:25:23.845Z,8768
2018-07-13T06:26:25.834Z,9532
2018-07-13T06:27:27.817Z,9036
2018-07-13T06:28:29.808Z,9440
2018-07-13T06:29:32.466Z,9664
2018-07-13T06:30:34.406Z,12084
2018-07-13T06:31:36.502Z,11292
2018-07-13T06:32:38.399Z,10644
2018-07-13T06:33:40.673Z,11768
2018-07-13T06:34:42.959Z,12964
2018-07-13T06:35:44.958Z,10068
2018-07-13T06:36:46.968Z,11160
2018-07-13T06:37:48.968Z,12152
2018-07-13T06:38:50.956Z,12356
2018-07-13T06:39:52.953Z,14444
2018-07-13T06:40:54.951Z,12932
2018-07-13T06:41:57.534Z,12952
2018-07-13T06:42:59.530Z,13580
2018-07-13T06:44:01.541Z,11996
2018-07-13T06:45:03.537Z,11108
2018-07-13T06:46:05.544Z,10236
2018-07-13T06:47:07.824Z,10032
2018-07-13T06:48:10.110Z,10384
2018-07-13T06:49:12.105Z,10308
2018-07-13T06:50:14.109Z,10456
2018-07-13T06:51:16.108Z,10928
2018-07-13T06:52:18.121Z,11364
2018-07-13T06:53:20.116Z,11204
2018-07-13T06:54:22.115Z,10796
2018-07-13T06:55:24.117Z,10480
2018-07-13T06:56:26.116Z,10632
2018-07-13T06:57:28.111Z,11204
2018-07-13T06:58:30.123Z,12356
2018-07-13T06:59:32.115Z,12788
2018-07-13T07:00:34.388Z,9924
2018-07-13T07:01:36.387Z,9256
2018-07-13T07:02:38.390Z,9344
2018-07-13T07:03:40.382Z,9408
2018-07-13T07:04:42.391Z,9388
2018-07-13T07:05:44.773Z,9540
2018-07-13T07:06:47.333Z,9660
2018-07-13T07:07:49.330Z,9840
2018-07-13T07:08:51.322Z,9888
2018-07-13T07:09:53.329Z,9764
2018-07-13T07:10:55.334Z,9632
2018-07-13T07:11:57.610Z,9540
2018-07-13T07:13:00.234Z,9732
2018-07-13T07:14:02.230Z,10404
2018-07-13T07:15:04.291Z,10892
2018-07-13T07:16:06.287Z,11612
2018-07-13T07:17:08.726Z,12308
2018-07-13T07:18:10.728Z,12840
2018-07-13T07:19:13.072Z,13588
2018-07-13T07:20:15.386Z,12128
2018-07-13T07:21:17.404Z,11656
2018-07-13T07:22:19.493Z,10600
2018-07-13T07:23:21.777Z,9892
2018-07-13T07:24:23.883Z,9764
2018-07-13T07:25:25.862Z,9804
2018-07-13T07:26:27.866Z,9812
2018-07-13T07:27:29.921Z,9840
2018-07-13T07:28:31.923Z,9952
2018-07-13T07:29:34.006Z,10288
2018-07-13T07:30:36.046Z,10704
2018-07-13T07:31:38.110Z,11784
2018-07-13T07:32:40.404Z,12624
2018-07-13T07:33:42.402Z,12048
2018-07-13T07:34:44.479Z,12412
2018-07-13T07:35:46.494Z,11664
2018-07-13T07:36:48.491Z,11512
2018-07-13T07:37:50.772Z,12916
2018-07-13T07:38:52.780Z,13856
2018-07-13T07:39:55.166Z,12956
2018-07-13T07:40:57.164Z,12364
2018-07-13T07:41:59.450Z,12380
2018-07-13T07:43:01.470Z,12476
2018-07-13T07:44:03.555Z,11836
2018-07-13T07:45:05.953Z,11392
2018-07-13T07:46:07.950Z,11132
2018-07-13T07:47:09.961Z,11280
2018-07-13T07:48:11.964Z,11220
2018-07-13T07:49:13.976Z,11256
2018-07-13T07:50:15.970Z,11168
2018-07-13T07:51:17.974Z,11176
2018-07-13T07:52:19.972Z,11240
2018-07-13T07:53:21.977Z,11312
2018-07-13T07:54:23.982Z,11376
2018-07-13T07:55:26.282Z,11488
2018-07-13T07:56:28.833Z,11448
2018-07-13T07:57:31.144Z,11528
2018-07-13T07:58:33.110Z,11680
2018-07-13T07:59:35.111Z,11856
2018-07-13T08:00:37.121Z,11972
2018-07-13T08:01:39.164Z,12092
2018-07-13T08:02:41.123Z,12144
2018-07-13T08:03:43.129Z,12636
2018-07-13T08:04:45.135Z,13264
2018-07-13T08:05:47.143Z,13632
2018-07-13T08:06:50.406Z,14024
2018-07-13T08:07:52.099Z,14472
2018-07-13T08:08:54.099Z,15312
2018-07-13T08:09:56.098Z,16920
2018-07-13T08:10:58.108Z,18440
2018-07-13T08:12:00.500Z,19712
2018-07-13T08:13:02.504Z,20224
2018-07-13T08:14:04.948Z,19936
2018-07-13T08:15:07.889Z,19024
2018-07-13T08:16:09.902Z,18040
2018-07-13T08:17:11.894Z,16876
2018-07-13T08:18:14.192Z,15804
2018-07-13T08:19:16.861Z,14824
2018-07-13T08:20:18.866Z,13416
2018-07-13T08:21:21.140Z,12468
2018-07-13T08:22:23.139Z,12932
2018-07-13T08:23:25.157Z,14252
2018-07-13T08:24:27.156Z,14704
2018-07-13T08:25:29.161Z,15168
2018-07-13T08:26:31.173Z,15436
2018-07-13T08:27:33.573Z,15612
2018-07-13T08:28:35.578Z,15676
2018-07-13T08:29:37.581Z,15648
2018-07-13T08:30:39.591Z,15544
2018-07-13T08:31:41.601Z,14832
2018-07-13T08:32:43.878Z,15016
2018-07-13T08:33:45.881Z,18524
2018-07-13T08:34:47.888Z,31552
2018-07-13T08:35:49.887Z,34880
2018-07-13T08:36:51.891Z,34528
2018-07-13T08:37:54.000Z,35744
2018-07-13T08:38:55.897Z,32512
2018-07-13T08:39:57.893Z,35872
2018-07-13T08:40:59.902Z,32512
2018-07-13T08:42:01.898Z,37120
2018-07-13T08:43:03.910Z,32224
2018-07-13T08:44:05.948Z,28064
2018-07-13T08:45:07.914Z,21376
2018-07-13T08:46:09.912Z,32800
2018-07-13T08:47:11.910Z,66560
2018-07-13T08:48:13.915Z,90080
2018-07-13T08:49:15.917Z,92768
2018-07-13T08:50:18.253Z,95424
2018-07-13T08:51:20.283Z,91328
2018-07-13T08:52:22.206Z,91680
2018-07-13T08:53:24.603Z,95552
2018-07-13T08:54:26.651Z,94784
2018-07-13T08:55:28.692Z,96512
2018-07-13T08:56:30.753Z,99168
2018-07-13T08:57:33.093Z,99776
2018-07-13T08:58:35.178Z,89440
2018-07-13T08:59:37.250Z,83424
2018-07-13T09:00:39.712Z,90496
2018-07-13T09:01:41.825Z,94016
2018-07-13T09:02:44.169Z,88160
2018-07-13T09:03:46.247Z,86336
2018-07-13T09:04:48.381Z,89472
2018-07-13T09:05:50.879Z,89536
2018-07-13T09:06:52.870Z,90208
2018-07-13T09:07:54.952Z,88544
2018-07-13T09:08:57.054Z,84544
2018-07-13T09:09:59.094Z,77920
2018-07-13T09:11:01.846Z,74432
2018-07-13T09:12:04.206Z,76736
2018-07-13T09:13:06.290Z,84256
2018-07-13T09:14:08.343Z,85664
2018-07-13T09:15:10.452Z,85824
2018-07-13T09:16:12.786Z,91936
2018-07-13T09:17:14.841Z,90592
2018-07-13T09:18:16.990Z,86944
2018-07-13T09:19:18.947Z,88256
2018-07-13T09:20:21.009Z,82336
2018-07-13T09:21:23.061Z,78528
2018-07-13T09:22:25.103Z,84768
2018-07-13T09:23:27.162Z,91424
2018-07-13T09:24:29.492Z,92832
2018-07-13T09:25:31.540Z,97440
2018-07-13T09:26:33.583Z,99040
2018-07-13T09:27:35.644Z,98848
2018-07-13T09:28:37.701Z,99680
2018-07-13T09:29:39.747Z,102016
2018-07-13T09:30:41.795Z,102464
2018-07-13T09:31:43.856Z,100000
2018-07-13T09:32:45.912Z,95744
2018-07-13T09:33:47.974Z,96192
2018-07-13T09:34:50.075Z,95584
2018-07-13T09:35:52.514Z,90656
2018-07-13T09:36:54.621Z,90304
2018-07-13T09:37:57.048Z,90624
2018-07-13T09:38:59.472Z,88160
2018-07-13T09:40:01.557Z,92416
2018-07-13T09:41:04.351Z,93248
2018-07-13T09:42:06.701Z,92928
2018-07-13T09:43:09.047Z,97856
2018-07-13T09:44:11.095Z,99808
2018-07-13T09:45:13.846Z,100832
2018-07-13T09:46:16.202Z,97472
2018-07-13T09:47:18.554Z,97728
2018-07-13T09:48:21.039Z,99072
2018-07-13T09:49:23.086Z,98304
2018-07-13T09:50:25.204Z,97312
2018-07-13T09:51:27.244Z,101152
2018-07-13T09:52:29.300Z,100704
2018-07-13T09:53:31.641Z,100352
2018-07-13T09:54:34.066Z,103168
2018-07-13T09:55:36.139Z,109600
2018-07-13T09:56:38.188Z,109920
2018-07-13T09:57:40.312Z,111520
2018-07-13T09:58:42.655Z,111264
2018-07-13T09:59:44.715Z,106592
2018-07-13T10:00:46.844Z,107456
2018-07-13T10:01:48.973Z,112928
2018-07-13T10:02:51.320Z,116768
2018-07-13T10:03:53.447Z,111168
2018-07-13T10:04:55.777Z,106240
2018-07-13T10:05:57.824Z,106752
2018-07-13T10:06:59.948Z,107904
2018-07-13T10:08:02.306Z,109472
2018-07-13T10:09:04.652Z,112448
2018-07-13T10:10:06.788Z,109632
2018-07-13T10:11:08.830Z,104960
2018-07-13T10:12:11.487Z,104704
2018-07-13T10:13:13.626Z,99616
2018-07-13T10:14:15.975Z,96768
2018-07-13T10:15:18.076Z,99296
2018-07-13T10:16:20.136Z,98912
2018-07-13T10:17:22.188Z,99712
2018-07-13T10:18:24.285Z,102528
2018-07-13T10:19:26.331Z,102400
2018-07-13T10:20:28.772Z,102752
2018-07-13T10:21:30.820Z,109632
2018-07-13T10:22:33.260Z,114944
2018-07-13T10:23:35.312Z,112512
2018-07-13T10:24:37.392Z,110976
2018-07-13T10:25:39.890Z,122304
2018-07-13T10:26:42.069Z,129728
2018-07-13T10:27:44.620Z,127488
2018-07-13T10:28:47.052Z,131328
2018-07-13T10:29:49.112Z,126464
2018-07-13T10:30:51.173Z,116160
2018-07-13T10:31:53.225Z,114816
2018-07-13T10:32:55.947Z,114880
2018-07-13T10:33:58.015Z,118496
2018-07-13T10:35:00.084Z,116960
2018-07-13T10:36:02.642Z,106016
2018-07-13T10:37:05.065Z,103552
2018-07-13T10:38:07.103Z,108800
2018-07-13T10:39:09.162Z,107360
2018-07-13T10:40:11.517Z,103936
2018-07-13T10:41:13.569Z,105728
2018-07-13T10:42:15.639Z,106848
2018-07-13T10:43:18.090Z,103808
2018-07-13T10:44:20.141Z,99072
2018-07-13T10:45:22.316Z,102208
2018-07-13T10:46:24.368Z,105056
2018-07-13T10:47:26.760Z,101536
2018-07-13T10:48:28.832Z,103200
2018-07-13T10:49:31.554Z,116960
2018-07-13T10:50:33.609Z,126176
2018-07-13T10:51:35.704Z,121120
2018-07-13T10:52:38.333Z,117728
2018-07-13T10:53:40.788Z,129152
2018-07-13T10:54:42.929Z,135264
2018-07-13T10:55:45.400Z,127488
2018-07-13T10:56:47.463Z,117088
2018-07-13T10:57:49.783Z,113792
2018-07-13T10:58:51.850Z,110816
2018-07-13T10:59:53.911Z,108832
2018-07-13T11:00:55.962Z,117280
2018-07-13T11:01:58.077Z,124320
2018-07-13T11:03:00.503Z,120192
2018-07-13T11:04:02.696Z,119904
2018-07-13T11:05:04.756Z,121216
2018-07-13T11:06:06.813Z,119616
2018-07-13T11:07:09.191Z,120672
2018-07-13T11:08:11.558Z,122784
2018-07-13T11:09:13.586Z,122240
2018-07-13T11:10:15.651Z,120224
2018-07-13T11:11:17.716Z,120544
2018-07-13T11:12:19.787Z,119904
2018-07-13T11:13:22.227Z,119840
2018-07-13T11:14:24.567Z,118528
2018-07-13T11:15:26.631Z,126400
2018-07-13T11:16:28.682Z,137472
2018-07-13T11:17:30.745Z,131968
2018-07-13T11:18:32.784Z,125952
2018-07-13T11:19:34.868Z,127936
2018-07-13T11:20:36.967Z,125408
2018-07-13T11:21:39.027Z,122144
2018-07-13T11:22:41.074Z,119904
2018-07-13T11:23:43.132Z,125568
2018-07-13T11:24:45.486Z,134176
2018-07-13T11:25:47.540Z,128000
2018-07-13T11:26:49.596Z,122944
2018-07-13T11:27:51.666Z,121856
2018-07-13T11:28:53.713Z,117728
2018-07-13T11:29:55.773Z,121856
2018-07-13T11:30:57.833Z,121088
2018-07-13T11:31:59.892Z,117536
2018-07-13T11:33:01.936Z,121888
2018-07-13T11:34:03.990Z,123424
2018-07-13T11:35:06.445Z,116224
2018-07-13T11:36:08.500Z,119552
2018-07-13T11:37:11.159Z,130240
2018-07-13T11:38:13.022Z,134624
2018-07-13T11:39:15.055Z,131584
2018-07-13T11:40:17.117Z,122592
2018-07-13T11:41:19.452Z,116128
2018-07-13T11:42:21.831Z,114944
2018-07-13T11:43:24.175Z,112192
2018-07-13T11:44:26.240Z,112000
2018-07-13T11:45:28.296Z,113728
2018-07-13T11:46:30.356Z,117152
2018-07-13T11:47:32.412Z,114880
2018-07-13T11:48:34.468Z,117120
2018-07-13T11:49:36.811Z,115680
2018-07-13T11:50:38.868Z,111968
2018-07-13T11:51:41.232Z,106272
2018-07-13T11:52:43.297Z,108128
2018-07-13T11:53:45.352Z,118688
2018-07-13T11:54:47.696Z,118176
2018-07-13T11:55:49.774Z,112544
2018-07-13T11:56:52.901Z,118848
2018-07-13T11:57:54.950Z,123648
2018-07-13T11:58:57.015Z,118912
2018-07-13T11:59:59.060Z,123200
2018-07-13T12:01:01.122Z,128480
2018-07-13T12:02:03.494Z,129344
2018-07-13T12:03:05.552Z,134624
2018-07-13T12:04:07.613Z,134944
2018-07-13T12:05:09.669Z,127424
2018-07-13T12:06:12.001Z,126816
2018-07-13T12:07:14.448Z,133600
2018-07-13T12:08:16.782Z,135392
2018-07-13T12:09:18.841Z,129600
2018-07-13T12:10:20.900Z,134848
2018-07-13T12:11:22.960Z,138016
2018-07-13T12:12:25.029Z,136288
2018-07-13T12:13:27.432Z,128992
2018-07-13T12:14:29.495Z,121888
2018-07-13T12:15:31.562Z,116000
2018-07-13T12:16:33.624Z,112416
2018-07-13T12:17:35.746Z,115584
2018-07-13T12:18:38.386Z,121088
2018-07-13T12:19:40.439Z,125376
2018-07-13T12:20:42.502Z,123680
2018-07-13T12:21:44.559Z,113760
2018-07-13T12:22:46.626Z,110656
2018-07-13T12:23:48.685Z,115808
2018-07-13T12:24:51.481Z,122784
2018-07-13T12:25:53.549Z,128992
2018-07-13T12:26:55.634Z,128800
2018-07-13T12:27:58.496Z,116096
2018-07-13T12:29:00.552Z,108608
2018-07-13T12:30:02.611Z,109312
2018-07-13T12:31:04.695Z,111744
2018-07-13T12:32:07.416Z,112256
2018-07-13T12:33:09.483Z,107520
2018-07-13T12:34:12.123Z,109984
2018-07-13T12:35:14.179Z,109376
2018-07-13T12:36:16.250Z,105344
2018-07-13T12:37:18.300Z,105664
2018-07-13T12:38:20.357Z,114176
2018-07-13T12:39:22.414Z,121120
2018-07-13T12:40:24.789Z,115072
2018-07-13T12:41:26.866Z,109664
2018-07-13T12:42:29.198Z,107712
2018-07-13T12:43:31.262Z,102368
2018-07-13T12:44:33.628Z,107456
2018-07-13T12:45:35.691Z,106944
2018-07-13T12:46:37.738Z,104672
2018-07-13T12:47:39.793Z,101920
2018-07-13T12:48:41.867Z,100896
2018-07-13T12:49:44.205Z,99744
2018-07-13T12:50:46.266Z,84320
2018-07-13T12:51:48.638Z,98176
2018-07-13T12:52:50.696Z,88320
2018-07-13T12:53:52.764Z,101376
2018-07-13T12:54:54.810Z,110496
2018-07-13T12:55:56.876Z,112640
2018-07-13T12:56:58.943Z,34144
2018-07-13T12:58:00.999Z,30976
2018-07-13T12:59:03.063Z,116800
2018-07-13T13:00:05.790Z,30400
2018-07-13T13:01:07.845Z,26080
2018-07-13T13:02:09.915Z,73984
2018-07-13T13:03:11.972Z,103424
2018-07-13T13:04:14.033Z,100640
2018-07-13T13:05:16.096Z,102080
2018-07-13T13:06:18.157Z,102176
2018-07-13T13:07:20.205Z,101376
2018-07-13T13:08:22.558Z,53408
2018-07-13T13:09:24.617Z,98976
2018-07-13T13:10:26.681Z,99808
2018-07-13T13:11:28.742Z,101472
2018-07-13T13:12:31.101Z,102176
2018-07-13T13:13:33.462Z,104064
2018-07-13T13:14:35.509Z,103008
2018-07-13T13:15:37.570Z,70464
2018-07-13T13:16:40.026Z,93728
2018-07-13T13:17:42.372Z,94560
2018-07-13T13:18:44.425Z,88704
2018-07-13T13:19:46.488Z,94784
2018-07-13T13:20:48.550Z,96096
2018-07-13T13:21:50.779Z,94976
2018-07-13T13:22:53.688Z,94816
2018-07-13T13:23:55.747Z,87168
2018-07-13T13:24:57.802Z,87456
2018-07-13T13:25:59.861Z,90464
2018-07-13T13:27:01.924Z,89088
2018-07-13T13:28:03.984Z,88288
2018-07-13T13:29:06.046Z,95328
2018-07-13T13:30:08.426Z,95520
2018-07-13T13:31:10.868Z,96512
2018-07-13T13:32:12.935Z,99680
2018-07-13T13:33:14.992Z,100192
2018-07-13T13:34:17.342Z,96960
2018-07-13T13:35:19.398Z,94976
2018-07-13T13:36:21.461Z,99968
2018-07-13T13:37:23.522Z,103264
2018-07-13T13:38:25.976Z,101920
2018-07-13T13:39:28.038Z,100128
2018-07-13T13:40:30.385Z,97952
2018-07-13T13:41:32.662Z,75232
2018-07-13T13:42:34.722Z,108224
2018-07-13T13:43:36.773Z,103712
2018-07-13T13:44:38.844Z,93344